Time;durP1;ratioP1;P1;durP2;ratioP2;P2;SDS_P1;SDS_P2;PMS_P1;PMS_P2;Temp;Humidity;BMP_temperature;BMP_pressure;BME280_temperature;BME280_humidity;BME280_pressure;Samples;Min_cycle;Max_cycle;Signal;HPM_P1;HPM_P2
2022/10/10 00:00:05;;;;;;;;;15.00;11.33;;;;;17.11;56.23;-19666.25;4993357;27;46110;-68
2022/10/10 00:02:31;;;;;;;;;10.33;8.67;;;;;17.17;56.51;-19667.97;4986581;27;45372;-68
2022/10/10 00:04:56;;;;;;;;;15.00;10.00;;;;;17.15;56.49;-19667.44;4965657;28;45380;-68
2022/10/10 00:07:21;;;;;;;;;8.33;7.33;;;;;17.14;56.73;-19667.03;4994555;27;45394;-68
2022/10/10 00:09:47;;;;;;;;;10.67;9.33;;;;;17.14;56.82;-19667.03;4996606;27;45637;-68
2022/10/10 00:12:13;;;;;;;;;9.67;8.00;;;;;17.15;56.67;-19667.44;4992729;27;45486;-68
2022/10/10 00:14:38;;;;;;;;;10.00;9.33;;;;;17.15;57.04;-19667.44;4993170;27;45291;-69
2022/10/10 00:17:04;;;;;;;;;11.00;10.67;;;;;17.20;57.12;-19668.66;4993792;28;45335;-68
2022/10/10 00:19:30;;;;;;;;;9.33;9.00;;;;;17.19;56.95;-19668.38;4992962;27;46835;-68
2022/10/10 00:21:55;;;;;;;;;10.33;9.00;;;;;17.20;57.15;-19668.66;4975184;28;45448;-68
2022/10/10 00:24:20;;;;;;;;;13.00;9.33;;;;;17.20;56.67;-19668.78;4988427;27;45838;-69
2022/10/10 00:26:46;;;;;;;;;11.67;10.00;;;;;17.21;56.94;-19668.91;4991988;27;45390;-68
2022/10/10 00:29:11;;;;;;;;;10.33;8.67;;;;;17.21;56.87;-19669.06;4992255;27;47488;-68
2022/10/10 00:31:37;;;;;;;;;10.67;10.67;;;;;17.22;56.87;-19669.31;4990656;27;45368;-68
2022/10/10 00:34:02;;;;;;;;;9.67;8.67;;;;;17.22;57.27;-19669.31;4983233;27;45402;-68
2022/10/10 00:36:27;;;;;;;;;13.00;9.67;;;;;17.20;56.98;-19668.78;4994657;27;45401;-68
2022/10/10 00:38:53;;;;;;;;;12.67;10.00;;;;;17.21;57.05;-19668.91;4992322;27;46999;-68
2022/10/10 00:41:18;;;;;;;;;8.33;8.33;;;;;17.20;56.68;-19668.78;4994304;27;45424;-68
2022/10/10 00:44:00;;;;;;;;;13.00;10.67;;;;;17.19;57.08;-19668.50;4996335;27;45381;-68
2022/10/10 00:46:25;;;;;;;;;12.00;11.33;;;;;17.15;57.17;-19667.44;4968104;28;45409;-68
2022/10/10 00:48:51;;;;;;;;;12.33;9.33;;;;;17.22;56.96;-19669.31;4980180;27;46166;-68
2022/10/10 00:51:18;;;;;;;;;14.67;10.00;;;;;17.22;57.23;-19669.31;4992480;27;45668;-68
2022/10/10 00:53:47;;;;;;;;;12.67;10.00;;;;;17.19;57.15;-19668.38;4988534;28;45533;-68
2022/10/10 00:56:15;;;;;;;;;11.67;10.33;;;;;17.23;57.03;-19669.44;4968379;28;46732;-76
2022/10/10 00:58:45;;;;;;;;;12.67;9.00;;;;;17.17;57.17;-19667.84;4988718;27;45425;-76
2022/10/10 01:01:11;;;;;;;;;14.00;11.67;;;;;17.21;57.40;-19669.06;4995740;27;45437;-76
2022/10/10 01:03:36;;;;;;;;;13.33;10.33;;;;;17.14;57.29;-19667.03;4994940;27;45492;-76
2022/10/10 01:06:02;;;;;;;;;14.00;10.67;;;;;17.20;57.22;-19668.78;4982307;27;45491;-76
2022/10/10 01:08:28;;;;;;;;;14.33;11.67;;;;;17.20;57.31;-19668.78;4996104;27;46089;-76
2022/10/10 01:11:21;;;;;;;;;14.33;14.33;;;;;17.20;57.30;-19668.78;5017733;27;45507;-77
2022/10/10 01:14:18;;;;;;;;;17.00;13.67;;;;;17.17;57.32;-19667.97;5031598;27;45521;-76
2022/10/10 01:16:55;;;;;;;;;19.67;14.33;;;;;17.13;57.04;-19666.91;4986596;27;45314;-76
2022/10/10 01:19:41;;;;;;;;;18.00;15.33;;;;;17.09;57.45;-19665.97;4990383;27;45374;-77
2022/10/10 01:22:21;;;;;;;;;16.00;14.33;;;;;17.06;57.52;-19665.03;4989644;27;45314;-76
2022/10/10 01:25:13;;;;;;;;;15.33;13.33;;;;;17.09;57.28;-19665.97;4992663;27;45406;-76
2022/10/10 01:27:48;;;;;;;;;22.00;17.67;;;;;17.08;57.37;-19665.69;4985978;27;45435;-76
2022/10/10 01:30:18;;;;;;;;;16.33;16.33;;;;;17.07;57.20;-19665.44;4972351;27;45409;-76
2022/10/10 01:33:07;;;;;;;;;15.33;14.00;;;;;16.97;57.57;-19662.63;4976639;27;45417;-76
2022/10/10 01:35:42;;;;;;;;;18.00;15.67;;;;;17.03;57.36;-19664.38;4991969;27;45403;-76
2022/10/10 01:38:30;;;;;;;;;19.67;17.00;;;;;17.01;57.52;-19663.69;4990667;27;45869;-76
2022/10/10 01:41:16;;;;;;;;;17.33;14.67;;;;;16.96;57.39;-19662.34;4996039;27;45437;-76
2022/10/10 01:43:41;;;;;;;;;13.67;13.67;;;;;16.97;57.51;-19662.75;4994116;27;45448;-76
2022/10/10 01:46:10;;;;;;;;;20.67;15.67;;;;;16.91;57.58;-19661.03;5008531;27;45646;-76
2022/10/10 01:48:37;;;;;;;;;19.00;17.00;;;;;16.92;57.58;-19661.28;4983132;27;45508;-76
2022/10/10 01:51:02;;;;;;;;;16.67;14.67;;;;;16.89;57.97;-19660.63;5003900;27;46357;-76
2022/10/10 01:53:42;;;;;;;;;16.33;15.67;;;;;16.85;58.05;-19659.69;5041957;27;45327;-76
2022/10/10 01:56:26;;;;;;;;;18.33;17.00;;;;;16.80;57.74;-19658.34;4995476;28;45382;-76
2022/10/10 01:59:14;;;;;;;;;15.33;15.33;;;;;16.84;57.93;-19659.41;4986107;27;45465;-75
2022/10/10 02:01:45;;;;;;;;;16.00;15.33;;;;;16.84;58.02;-19659.28;5001218;27;47118;-76
2022/10/10 02:04:32;;;;;;;;;18.33;14.00;;;;;16.78;57.87;-19657.78;4996286;27;45400;-76
2022/10/10 02:07:07;;;;;;;;;13.00;11.67;;;;;16.78;58.01;-19657.66;4989439;28;45800;-76
2022/10/10 02:09:40;;;;;;;;;17.00;15.67;;;;;16.75;58.08;-19656.88;5062592;27;45503;-76
2022/10/10 02:12:08;;;;;;;;;14.00;14.00;;;;;16.70;58.11;-19655.53;4993242;28;47826;-76
2022/10/10 02:14:42;;;;;;;;;14.00;12.33;;;;;16.69;58.28;-19655.38;4980695;27;45347;-76
2022/10/10 02:17:11;;;;;;;;;16.00;13.67;;;;;16.68;58.26;-19655.13;4994903;28;45585;-76
2022/10/10 02:19:43;;;;;;;;;12.00;12.00;;;;;16.64;58.42;-19654.19;4992951;27;45350;-76
2022/10/10 02:22:09;;;;;;;;;16.33;14.33;;;;;16.60;58.33;-19653.13;4974467;27;47443;-76
2022/10/10 02:24:35;;;;;;;;;12.67;9.00;;;;;16.55;58.61;-19651.78;4978430;27;45356;-75
2022/10/10 02:27:41;;;;;;;;;13.00;13.00;;;;;16.56;58.30;-19652.03;5046143;28;45339;-76
2022/10/10 02:30:07;;;;;;;;;16.67;15.00;;;;;16.60;58.64;-19653.13;4988394;27;45549;-76
2022/10/10 02:32:46;;;;;;;;;15.00;13.00;;;;;16.58;58.40;-19652.56;4975465;28;47387;-76
2022/10/10 02:35:17;;;;;;;;;15.67;15.67;;;;;16.59;58.58;-19652.84;4993357;27;45295;-76
2022/10/10 02:37:44;;;;;;;;;14.67;14.33;;;;;16.63;58.44;-19653.78;4988876;27;45476;-76
2022/10/10 02:40:14;;;;;;;;;16.67;14.33;;;;;16.63;58.69;-19653.91;4980559;27;45448;-76
2022/10/10 02:42:39;;;;;;;;;16.33;15.00;;;;;16.65;58.48;-19654.44;4984186;28;46874;-76
2022/10/10 02:45:05;;;;;;;;;15.00;15.00;;;;;16.65;58.47;-19654.31;4992709;27;45385;-76
2022/10/10 02:47:31;;;;;;;;;16.00;14.00;;;;;16.64;58.33;-19654.19;4994621;28;45377;-76
2022/10/10 02:49:56;;;;;;;;;11.67;11.67;;;;;16.62;58.67;-19653.50;4977269;27;45322;-76
2022/10/10 02:52:21;;;;;;;;;13.67;13.67;;;;;16.66;58.36;-19654.59;4935834;27;1327308;-76
2022/10/10 02:54:47;;;;;;;;;16.33;14.00;;;;;16.64;58.51;-19654.19;5048963;27;45464;-68
2022/10/10 02:57:13;;;;;;;;;14.33;10.67;;;;;16.56;58.44;-19652.03;5001847;27;45481;-68
2022/10/10 02:59:38;;;;;;;;;13.67;13.33;;;;;16.51;58.60;-19650.69;4994419;27;45503;-68
2022/10/10 03:02:05;;;;;;;;;16.00;13.00;;;;;16.64;58.55;-19654.03;4990788;27;45810;-68
2022/10/10 03:04:30;;;;;;;;;17.33;15.67;;;;;16.60;58.45;-19653.13;4994287;27;45478;-68
2022/10/10 03:06:56;;;;;;;;;12.67;9.67;;;;;16.60;58.63;-19653.13;5009251;27;45501;-68
2022/10/10 03:09:21;;;;;;;;;13.00;13.00;;;;;16.59;58.86;-19652.72;5002887;27;45302;-68
2022/10/10 03:11:46;;;;;;;;;10.33;9.33;;;;;16.59;58.62;-19652.84;5043501;27;46007;-68
2022/10/10 03:14:12;;;;;;;;;12.67;10.33;;;;;16.59;58.76;-19652.84;4995881;27;45345;-68
2022/10/10 03:16:37;;;;;;;;;17.33;13.33;;;;;16.61;58.99;-19653.25;4988532;27;45339;-68
2022/10/10 03:19:03;;;;;;;;;14.33;12.67;;;;;16.62;58.73;-19653.50;4993388;27;45500;-68
2022/10/10 03:21:28;;;;;;;;;12.33;11.67;;;;;16.55;58.90;-19651.63;4988682;27;45946;-68
2022/10/10 03:23:53;;;;;;;;;11.33;9.33;;;;;16.56;59.30;-19651.91;4992367;28;45778;-68
2022/10/10 03:26:19;;;;;;;;;12.67;11.00;;;;;16.61;59.18;-19653.38;4990483;27;45346;-68
2022/10/10 03:28:44;;;;;;;;;15.00;14.00;;;;;16.51;59.31;-19650.56;4994230;27;45400;-68
2022/10/10 03:31:10;;;;;;;;;13.33;11.33;;;;;16.56;58.87;-19651.91;4992115;27;45433;-68
2022/10/10 03:33:35;;;;;;;;;13.00;8.67;;;;;16.63;59.46;-19653.78;4997008;27;45306;-68
2022/10/10 03:36:01;;;;;;;;;14.67;10.33;;;;;16.64;59.07;-19654.03;4993798;28;45564;-68
2022/10/10 03:38:26;;;;;;;;;13.67;10.00;;;;;16.54;59.41;-19651.50;4991389;27;45720;-68
2022/10/10 03:40:51;;;;;;;;;15.00;13.67;;;;;16.55;59.31;-19651.78;4973753;28;46157;-68
2022/10/10 03:43:17;;;;;;;;;12.33;10.67;;;;;16.56;59.43;-19652.03;4988881;27;45445;-68
2022/10/10 03:45:44;;;;;;;;;9.33;9.33;;;;;16.60;59.48;-19652.97;4974228;27;45312;-68
2022/10/10 03:48:10;;;;;;;;;13.33;10.00;;;;;16.55;59.31;-19651.78;4985896;27;45445;-68
2022/10/10 03:50:36;;;;;;;;;10.33;9.33;;;;;16.58;59.29;-19652.44;4996626;27;45703;-68
2022/10/10 03:53:02;;;;;;;;;10.00;10.00;;;;;16.68;59.26;-19655.13;4993365;27;45512;-68
2022/10/10 03:55:27;;;;;;;;;10.33;9.33;;;;;16.67;59.41;-19655.00;4994801;27;45396;-68
2022/10/10 03:57:53;;;;;;;;;14.67;10.00;;;;;16.68;59.25;-19655.25;4974877;28;46125;-68
2022/10/10 04:00:18;;;;;;;;;10.33;10.33;;;;;16.70;59.51;-19655.53;4988837;28;45539;-68
2022/10/10 04:02:43;;;;;;;;;9.67;8.67;;;;;16.69;59.28;-19655.38;4980141;27;45352;-68
2022/10/10 04:05:09;;;;;;;;;11.33;11.33;;;;;16.57;59.36;-19652.16;4988240;28;45511;-68
2022/10/10 04:07:35;;;;;;;;;10.67;10.33;;;;;16.67;59.13;-19654.84;4975944;28;45671;-68
2022/10/10 04:10:00;;;;;;;;;9.33;8.67;;;;;16.70;59.39;-19655.66;4975026;28;46344;-68
2022/10/10 04:12:26;;;;;;;;;8.00;6.67;;;;;16.73;59.62;-19656.31;4983514;28;45318;-68
2022/10/10 04:14:51;;;;;;;;;9.67;9.33;;;;;16.75;59.60;-19656.88;4994653;27;45561;-68
2022/10/10 04:17:16;;;;;;;;;9.00;9.00;;;;;16.76;59.66;-19657.25;4993413;27;45242;-68
2022/10/10 04:19:42;;;;;;;;;8.67;8.67;;;;;16.72;59.84;-19656.06;4992540;27;46392;-68
2022/10/10 04:22:07;;;;;;;;;14.00;11.00;;;;;16.73;59.83;-19656.31;4975187;27;45396;-68
2022/10/10 04:24:32;;;;;;;;;12.67;9.33;;;;;16.65;60.17;-19654.31;4974031;28;45333;-68
2022/10/10 04:26:58;;;;;;;;;9.33;8.33;;;;;16.71;60.21;-19655.91;4994538;28;45306;-68
2022/10/10 04:29:23;;;;;;;;;9.33;9.33;;;;;16.63;60.05;-19653.91;4992197;27;46909;-68
2022/10/10 04:31:48;;;;;;;;;12.33;9.67;;;;;16.76;60.12;-19657.25;4993959;27;45294;-68
2022/10/10 04:34:14;;;;;;;;;8.33;8.33;;;;;16.77;60.27;-19657.41;4993538;27;45395;-68
2022/10/10 04:36:40;;;;;;;;;11.33;10.00;;;;;16.72;60.10;-19656.19;4984725;27;45397;-68
2022/10/10 04:39:05;;;;;;;;;13.00;10.00;;;;;16.78;60.14;-19657.66;4992601;28;46294;-68
2022/10/10 04:41:30;;;;;;;;;13.00;8.67;;;;;16.82;60.14;-19658.75;4992066;27;45472;-68
2022/10/10 04:43:56;;;;;;;;;8.67;8.67;;;;;16.81;60.07;-19658.47;4976003;28;45456;-68
2022/10/10 04:46:22;;;;;;;;;11.33;11.00;;;;;16.80;60.30;-19658.22;4994529;27;45363;-68
2022/10/10 04:48:47;;;;;;;;;11.33;9.67;;;;;16.77;60.20;-19657.53;4992453;27;45406;-68
2022/10/10 04:51:12;;;;;;;;;9.33;8.33;;;;;16.73;60.41;-19656.47;4992670;27;45298;-68
2022/10/10 04:53:38;;;;;;;;;11.67;8.67;;;;;16.81;60.22;-19658.59;4991703;28;45379;-68
2022/10/10 04:56:04;;;;;;;;;13.00;9.67;;;;;16.79;60.31;-19658.06;4992237;27;45293;-76
2022/10/10 04:58:29;;;;;;;;;11.33;9.33;;;;;16.75;60.67;-19657.00;4978443;28;47026;-77
2022/10/10 05:00:55;;;;;;;;;9.00;9.00;;;;;16.77;60.59;-19657.53;4991725;27;45500;-76
2022/10/10 05:03:22;;;;;;;;;8.67;8.67;;;;;16.82;60.50;-19658.88;4992723;27;45228;-76
2022/10/10 05:05:47;;;;;;;;;15.67;11.00;;;;;16.87;60.29;-19660.22;4972885;28;45608;-76
2022/10/10 05:08:13;;;;;;;;;12.33;11.00;;;;;16.90;60.36;-19660.75;4962892;28;47036;-76
2022/10/10 05:10:39;;;;;;;;;11.67;9.00;;;;;16.90;60.64;-19660.88;4990632;27;45485;-76
2022/10/10 05:13:11;;;;;;;;;11.00;8.00;;;;;16.91;60.54;-19661.16;4994774;27;45455;-76
2022/10/10 05:15:37;;;;;;;;;12.00;9.33;;;;;16.94;60.38;-19661.81;4997514;27;45471;-76
2022/10/10 05:18:03;;;;;;;;;8.67;8.00;;;;;16.92;60.45;-19661.28;4991068;27;46197;-76
2022/10/10 05:20:29;;;;;;;;;9.67;9.67;;;;;16.82;60.20;-19658.88;4967814;28;45389;-76
2022/10/10 05:22:54;;;;;;;;;9.33;8.00;;;;;16.86;60.60;-19659.94;4986306;27;45332;-76
2022/10/10 05:25:19;;;;;;;;;8.67;8.00;;;;;16.85;60.63;-19659.53;4976413;28;45439;-76
2022/10/10 05:27:45;;;;;;;;;10.33;8.33;;;;;16.85;60.67;-19659.53;4991678;28;45438;-76
2022/10/10 05:30:11;;;;;;;;;10.00;9.33;;;;;16.84;60.78;-19659.41;4981608;27;45500;-76
2022/10/10 05:32:36;;;;;;;;;7.67;7.67;;;;;16.70;60.75;-19655.53;4969365;28;45355;-76
2022/10/10 05:35:03;;;;;;;;;10.67;8.00;;;;;16.79;60.93;-19657.94;4992317;28;45354;-76
2022/10/10 05:37:28;;;;;;;;;8.33;8.33;;;;;16.79;61.10;-19658.06;4990297;27;45444;-76
2022/10/10 05:39:53;;;;;;;;;7.33;7.33;;;;;16.76;61.34;-19657.13;4992144;28;45287;-76
2022/10/10 05:42:19;;;;;;;;;3.67;2.67;;;;;16.73;61.29;-19656.47;4988376;27;45436;-76
2022/10/10 05:44:44;;;;;;;;;5.00;5.00;;;;;16.76;61.34;-19657.13;4989346;28;45547;-76
2022/10/10 05:47:09;;;;;;;;;10.67;8.33;;;;;16.73;61.15;-19656.47;4996060;27;45537;-76
2022/10/10 05:49:35;;;;;;;;;8.00;5.00;;;;;16.67;61.65;-19654.84;4998457;27;45433;-76
2022/10/10 05:52:01;;;;;;;;;8.00;7.00;;;;;16.73;61.57;-19656.47;4994559;27;45821;-76
2022/10/10 05:54:26;;;;;;;;;8.67;8.67;;;;;16.73;61.84;-19656.47;4986829;27;45636;-76
2022/10/10 05:56:52;;;;;;;;;9.33;7.33;;;;;16.73;61.88;-19656.31;4996180;27;46257;-68
2022/10/10 05:59:17;;;;;;;;;8.00;8.00;;;;;16.70;61.75;-19655.66;4989760;27;45866;-69
2022/10/10 06:01:42;;;;;;;;;9.33;7.67;;;;;16.67;61.80;-19654.84;4981907;28;45296;-69
2022/10/10 06:04:07;;;;;;;;;8.67;8.33;;;;;16.68;62.00;-19655.13;4982730;27;45295;-69
2022/10/10 06:06:33;;;;;;;;;5.00;5.00;;;;;16.75;61.66;-19657.00;4994988;28;47158;-69
2022/10/10 06:08:58;;;;;;;;;8.33;7.67;;;;;16.77;61.63;-19657.41;4980229;27;45481;-70
2022/10/10 06:11:24;;;;;;;;;6.00;6.00;;;;;16.78;61.86;-19657.78;4977057;27;45472;-71
2022/10/10 06:13:53;;;;;;;;;7.33;7.33;;;;;16.80;61.70;-19658.34;4983089;27;45540;-69
2022/10/10 06:16:19;;;;;;;;;8.00;7.00;;;;;16.82;61.90;-19658.88;5000320;27;47391;-69
2022/10/10 06:18:45;;;;;;;;;8.00;6.00;;;;;16.85;61.97;-19659.53;4988492;27;45973;-71
2022/10/10 06:21:11;;;;;;;;;10.67;7.67;;;;;16.87;61.92;-19660.22;4989691;27;45464;-70
2022/10/10 06:23:36;;;;;;;;;11.00;6.67;;;;;16.86;61.86;-19659.94;4978508;28;45550;-70
2022/10/10 06:26:03;;;;;;;;;10.00;6.33;;;;;16.85;62.27;-19659.53;5000059;27;46033;-71
2022/10/10 06:28:28;;;;;;;;;15.33;9.33;;;;;16.81;62.21;-19658.59;5002779;27;45582;-71
2022/10/10 06:30:59;;;;;;;;;5.33;5.00;;;;;16.74;62.53;-19656.72;4992443;28;45369;-72
2022/10/10 06:33:25;;;;;;;;;6.33;5.67;;;;;16.86;62.45;-19659.81;4987995;27;45555;-72
2022/10/10 06:35:51;;;;;;;;;8.00;7.67;;;;;16.87;62.84;-19660.09;4995424;27;47127;-72
2022/10/10 06:38:17;;;;;;;;;8.00;6.00;;;;;16.87;62.38;-19660.09;4992515;27;45619;-72
2022/10/10 06:40:43;;;;;;;;;6.00;6.00;;;;;16.92;62.89;-19661.28;4985202;28;45517;-72
2022/10/10 06:43:12;;;;;;;;;8.67;7.33;;;;;16.97;62.74;-19662.63;5016648;27;45846;-71
2022/10/10 06:45:39;;;;;;;;;9.00;7.67;;;;;17.01;62.54;-19663.69;4991548;27;46316;-72
2022/10/10 06:48:06;;;;;;;;;8.00;8.00;;;;;16.98;62.51;-19662.91;4987340;27;45456;-73
2022/10/10 06:50:31;;;;;;;;;9.00;7.67;;;;;17.06;62.53;-19665.16;5020987;27;45481;-72
2022/10/10 06:52:56;;;;;;;;;8.00;8.00;;;;;17.05;62.50;-19664.91;5001806;27;45324;-72
2022/10/10 06:55:22;;;;;;;;;9.33;7.67;;;;;17.03;62.69;-19664.38;4968479;28;46722;-74
2022/10/10 06:57:47;;;;;;;;;2.67;2.67;;;;;17.16;62.78;-19667.56;5009147;27;45320;-77
2022/10/10 07:00:13;;;;;;;;;7.33;7.33;;;;;17.23;62.37;-19669.59;4981217;28;45471;-73
2022/10/10 07:02:39;;;;;;;;;9.00;9.00;;;;;17.22;62.43;-19669.31;4990960;27;45517;-74
2022/10/10 07:05:10;;;;;;;;;10.00;8.00;;;;;17.32;62.50;-19671.72;4983471;27;45523;-73
2022/10/10 07:07:36;;;;;;;;;9.00;5.00;;;;;17.40;62.03;-19674.00;5001722;27;45333;-74
2022/10/10 07:10:02;;;;;;;;;6.33;6.33;;;;;17.43;62.02;-19674.66;4997911;27;45496;-75
2022/10/10 07:12:28;;;;;;;;;9.67;8.33;;;;;17.43;62.01;-19674.66;4996899;27;45560;-77
2022/10/10 07:14:53;;;;;;;;;8.33;8.33;;;;;17.45;62.16;-19675.34;4998506;27;46626;-77
2022/10/10 07:17:18;;;;;;;;;9.00;8.00;;;;;17.49;62.21;-19676.28;4990228;27;45539;-78
2022/10/10 07:19:44;;;;;;;;;7.67;7.67;;;;;17.46;61.75;-19675.59;4996072;27;45476;-80
2022/10/10 07:22:09;;;;;;;;;9.67;6.00;;;;;17.55;62.10;-19677.75;4997726;27;45377;-77
2022/10/10 07:24:35;;;;;;;;;7.33;5.00;;;;;17.59;63.40;-19678.81;5008235;27;47024;-76
2022/10/10 07:27:01;;;;;;;;;9.67;9.67;;;;;17.56;62.82;-19678.16;4992088;28;45431;-79
2022/10/10 07:29:27;;;;;;;;;6.00;4.67;;;;;17.60;62.50;-19679.22;5006113;28;45571;-79
2022/10/10 07:31:52;;;;;;;;;10.00;8.00;;;;;17.66;62.12;-19680.81;4996953;27;45457;-77
2022/10/10 07:34:17;;;;;;;;;9.67;8.33;;;;;17.66;63.04;-19680.81;4998646;27;46600;-78
2022/10/10 07:36:45;;;;;;;;;8.00;7.00;;;;;17.71;62.59;-19682.16;4981514;27;45517;-78
2022/10/10 07:39:11;;;;;;;;;9.33;8.67;;;;;17.70;62.70;-19681.75;4996460;27;45401;-78
2022/10/10 07:41:36;;;;;;;;;9.67;8.33;;;;;17.69;62.04;-19681.50;4975016;27;45504;-78
2022/10/10 07:44:02;;;;;;;;;7.33;7.00;;;;;17.68;62.19;-19681.22;4974708;27;46210;-78
2022/10/10 07:46:30;;;;;;;;;8.33;7.67;;;;;17.70;62.57;-19681.91;4974721;27;45382;-78
2022/10/10 07:48:58;;;;;;;;;7.67;5.00;;;;;17.86;62.85;-19685.91;4974889;28;45460;-78
2022/10/10 07:51:24;;;;;;;;;8.00;7.33;;;;;17.89;62.60;-19686.72;4981308;27;45401;-78
2022/10/10 07:53:51;;;;;;;;;8.33;8.33;;;;;17.95;62.32;-19688.31;4975403;27;45373;-78
2022/10/10 07:56:16;;;;;;;;;9.00;7.67;;;;;17.97;62.12;-19688.84;4993102;28;45472;-77
2022/10/10 07:58:42;;;;;;;;;8.67;8.67;;;;;17.96;61.75;-19688.59;4974943;27;45391;-77
2022/10/10 08:01:10;;;;;;;;;12.00;6.67;;;;;17.96;62.32;-19688.59;4974866;27;45304;-78
2022/10/10 08:03:35;;;;;;;;;11.33;10.00;;;;;17.99;61.88;-19689.38;4975021;27;45511;-78
2022/10/10 08:06:06;;;;;;;;;7.67;7.67;;;;;18.04;62.63;-19690.72;4974423;27;45508;-78
2022/10/10 08:08:32;;;;;;;;;11.00;5.67;;;;;18.06;62.17;-19691.13;4974487;27;45276;-78
2022/10/10 08:10:58;;;;;;;;;8.67;7.67;;;;;17.95;62.16;-19688.19;4975245;27;45446;-78
2022/10/10 08:13:25;;;;;;;;;8.33;6.00;;;;;18.08;62.34;-19691.66;4977292;28;45327;-78
2022/10/10 08:15:50;;;;;;;;;6.67;6.33;;;;;18.12;62.00;-19692.72;4974360;27;45440;-78
2022/10/10 08:18:17;;;;;;;;;8.33;8.33;;;;;18.15;62.24;-19693.53;4978483;27;45485;-78
2022/10/10 08:20:42;;;;;;;;;5.67;5.67;;;;;18.21;62.17;-19695.00;4973677;28;45386;-78
2022/10/10 08:23:07;;;;;;;;;8.00;8.00;;;;;18.26;62.45;-19696.47;4990146;27;45903;-78
2022/10/10 08:25:33;;;;;;;;;8.67;7.33;;;;;18.34;62.74;-19698.63;4994310;27;45347;-78
2022/10/10 08:27:59;;;;;;;;;11.33;9.00;;;;;18.40;62.34;-19699.94;4994349;27;45425;-78
2022/10/10 08:30:24;;;;;;;;;8.67;8.67;;;;;18.51;61.93;-19703.03;4994307;27;45623;-78
2022/10/10 08:32:49;;;;;;;;;6.00;6.00;;;;;18.62;62.00;-19705.81;4994403;27;46244;-78
2022/10/10 08:35:15;;;;;;;;;7.67;5.33;;;;;18.70;61.94;-19707.97;4976696;28;45312;-78
2022/10/10 08:37:40;;;;;;;;;5.00;5.00;;;;;18.79;62.55;-19710.25;4977163;28;45764;-78
2022/10/10 08:40:06;;;;;;;;;12.67;7.67;;;;;18.84;61.64;-19711.56;4994252;27;45232;-78
2022/10/10 08:42:37;;;;;;;;;5.33;5.33;;;;;18.86;61.34;-19712.09;4993892;27;46057;-78
2022/10/10 08:45:11;;;;;;;;;8.67;8.00;;;;;18.85;61.67;-19711.84;4994000;27;45321;-78
2022/10/10 08:47:45;;;;;;;;;12.33;9.33;;;;;18.83;61.49;-19711.31;4994278;27;45413;-78
2022/10/10 08:50:20;;;;;;;;;12.33;10.33;;;;;18.86;61.52;-19712.09;4994031;27;45565;-78
2022/10/10 08:52:59;;;;;;;;;7.00;7.00;;;;;18.87;61.67;-19712.38;4993964;27;47439;-78
2022/10/10 08:55:42;;;;;;;;;6.67;6.67;;;;;18.95;62.17;-19714.50;4993865;27;45417;-72
2022/10/10 08:58:18;;;;;;;;;6.33;5.00;;;;;19.12;62.53;-19718.78;4993933;27;45433;-73
2022/10/10 09:00:54;;;;;;;;;9.67;8.67;;;;;19.28;61.48;-19723.06;4992749;27;45469;-72
2022/10/10 09:03:35;;;;;;;;;7.00;6.00;;;;;19.31;61.27;-19723.72;4993730;28;45434;-72
2022/10/10 09:06:19;;;;;;;;;6.33;6.33;;;;;19.48;61.26;-19728.28;4975942;28;45491;-72
2022/10/10 09:08:51;;;;;;;;;7.33;6.33;;;;;19.64;61.50;-19732.28;4994060;27;45375;-72
2022/10/10 09:11:45;;;;;;;;;5.33;5.33;;;;;19.79;61.10;-19736.41;4994318;27;45432;-72
2022/10/10 09:14:13;;;;;;;;;7.00;5.33;;;;;19.94;61.04;-19740.16;4993282;27;46405;-73
2022/10/10 09:16:52;;;;;;;;;6.00;5.00;;;;;20.06;60.35;-19743.34;4993521;27;45365;-73
2022/10/10 09:19:56;;;;;;;;;7.33;7.00;;;;;20.15;60.35;-19745.63;4994479;27;45254;-72
2022/10/10 09:22:28;;;;;;;;;9.00;7.67;;;;;20.31;59.62;-19749.88;4986982;27;45424;-73
2022/10/10 09:25:17;;;;;;;;;6.67;5.00;;;;;20.54;59.54;-19755.88;4996204;27;45331;-73
2022/10/10 09:27:51;;;;;;;;;5.00;4.33;;;;;20.80;58.75;-19762.69;4996299;27;45340;-72
2022/10/10 09:30:19;;;;;;;;;6.00;6.00;;;;;21.15;58.55;-19771.72;4996621;27;45401;-72
2022/10/10 09:32:50;;;;;;;;;7.33;4.00;;;;;21.69;57.82;-19785.72;4997051;27;45405;-72
2022/10/10 09:35:23;;;;;;;;;6.00;5.00;;;;;21.97;57.18;-19793.03;4996164;27;46241;-73
2022/10/10 09:37:57;;;;;;;;;6.00;4.33;;;;;22.37;55.91;-19803.41;4996600;27;45298;-73
2022/10/10 09:40:28;;;;;;;;;4.67;4.67;;;;;22.57;55.44;-19808.59;4996760;27;45374;-73
2022/10/10 09:42:55;;;;;;;;;5.33;5.33;;;;;22.47;54.52;-19806.06;4979176;28;45456;-73
2022/10/10 09:45:31;;;;;;;;;5.33;4.33;;;;;22.54;54.94;-19807.94;4996183;27;45423;-73
2022/10/10 09:47:57;;;;;;;;;5.67;5.67;;;;;22.45;54.60;-19805.53;4996319;27;45169;-73
2022/10/10 09:50:23;;;;;;;;;5.67;3.67;;;;;22.33;55.11;-19802.47;4996618;27;45441;-72
2022/10/10 09:52:50;;;;;;;;;4.00;4.00;;;;;22.20;55.57;-19798.88;4996527;27;45544;-73
2022/10/10 09:55:29;;;;;;;;;4.33;4.33;;;;;21.95;55.63;-19792.50;4996039;27;46493;-73
2022/10/10 09:57:59;;;;;;;;;7.33;5.67;;;;;21.80;55.73;-19788.50;5039315;27;45318;-73
2022/10/10 10:00:34;;;;;;;;;4.67;4.67;;;;;21.50;56.50;-19780.78;5022430;27;45457;-73
2022/10/10 10:03:08;;;;;;;;;6.67;5.33;;;;;21.37;56.78;-19777.31;5022546;27;45482;-73
2022/10/10 10:05:34;;;;;;;;;7.00;6.00;;;;;21.24;56.94;-19774.13;5019869;27;46310;-73
2022/10/10 10:07:59;;;;;;;;;7.67;6.00;;;;;21.15;57.08;-19771.59;4995966;27;45385;-72
2022/10/10 10:10:26;;;;;;;;;4.00;4.00;;;;;20.98;57.60;-19767.34;4996132;27;45450;-73
2022/10/10 10:12:54;;;;;;;;;5.00;5.00;;;;;20.83;58.12;-19763.47;4996386;27;45452;-73
2022/10/10 10:15:20;;;;;;;;;5.33;4.00;;;;;20.86;58.42;-19764.28;4996077;27;46244;-73
2022/10/10 10:18:27;;;;;;;;;6.00;6.00;;;;;20.80;58.90;-19762.69;4996053;27;45366;-73
2022/10/10 10:21:17;;;;;;;;;9.33;6.00;;;;;20.78;58.82;-19762.00;4987609;27;45470;-73
2022/10/10 10:23:49;;;;;;;;;7.33;5.00;;;;;20.75;58.97;-19761.22;4996560;27;45348;-72
2022/10/10 10:26:23;;;;;;;;;6.00;5.67;;;;;20.71;59.01;-19760.16;4977989;28;47543;-73
2022/10/10 10:28:50;;;;;;;;;9.00;6.00;;;;;20.65;58.79;-19758.81;4995998;27;45379;-73
2022/10/10 10:31:29;;;;;;;;;7.33;6.67;;;;;20.59;59.02;-19757.22;4995769;27;45368;-73
2022/10/10 10:34:22;;;;;;;;;8.00;6.00;;;;;20.42;59.37;-19752.81;4996216;27;46167;-73
2022/10/10 10:37:20;;;;;;;;;10.33;5.33;;;;;20.52;59.41;-19755.34;4995408;27;45427;-73
2022/10/10 10:40:06;;;;;;;;;9.67;5.67;;;;;20.58;59.86;-19756.81;5036092;28;45446;-73
2022/10/10 10:42:51;;;;;;;;;5.33;5.00;;;;;20.57;59.59;-19756.53;5036500;28;45767;-73
2022/10/10 10:45:47;;;;;;;;;6.67;5.33;;;;;20.53;59.79;-19755.59;5036422;28;45430;-73
2022/10/10 10:48:23;;;;;;;;;7.33;5.33;;;;;20.55;59.96;-19756.13;5015810;28;46266;-73
2022/10/10 10:51:31;;;;;;;;;7.00;5.33;;;;;20.62;59.68;-19757.88;5018963;28;45459;-72
2022/10/10 10:54:19;;;;;;;;;6.33;4.00;;;;;20.63;59.52;-19758.28;5036837;28;45518;-72
2022/10/10 10:57:23;;;;;;;;;6.33;5.67;;;;;20.66;59.40;-19758.94;5019511;28;45431;-77
2022/10/10 11:00:04;;;;;;;;;6.00;5.00;;;;;20.70;59.36;-19760.00;4958023;28;47392;-77
2022/10/10 11:02:35;;;;;;;;;6.67;5.00;;;;;20.63;59.63;-19758.16;4956937;28;45464;-78
2022/10/10 11:05:13;;;;;;;;;5.33;5.33;;;;;20.71;59.30;-19760.28;4956716;28;45380;-78
2022/10/10 11:07:57;;;;;;;;;6.67;6.67;;;;;20.75;59.86;-19761.34;4957047;28;45305;-77
2022/10/10 11:10:42;;;;;;;;;8.67;7.00;;;;;20.79;59.43;-19762.28;4956914;28;45787;-77
2022/10/10 11:13:22;;;;;;;;;6.33;6.00;;;;;20.80;59.50;-19762.53;4956844;28;45418;-77
2022/10/10 11:15:55;;;;;;;;;7.00;6.00;;;;;20.80;59.30;-19762.69;4946490;28;45392;-77
2022/10/10 11:18:29;;;;;;;;;5.00;5.00;;;;;20.91;59.91;-19765.34;4914725;28;45513;-77
2022/10/10 11:21:04;;;;;;;;;9.67;7.00;;;;;20.94;59.43;-19766.28;4915237;28;46637;-77
2022/10/10 11:23:35;;;;;;;;;6.67;6.00;;;;;20.94;59.83;-19766.13;4914978;28;45328;-77
2022/10/10 11:26:25;;;;;;;;;6.33;5.33;;;;;20.94;59.85;-19766.28;4915098;28;45519;-77
2022/10/10 11:28:59;;;;;;;;;8.67;5.33;;;;;20.98;59.41;-19767.22;4903466;28;45535;-77
2022/10/10 11:31:36;;;;;;;;;6.33;6.00;;;;;20.90;59.23;-19765.06;4915023;28;46008;-77